sensor_id;sensor_type;location;lat;lon;timestamp;P1;durP1;ratioP1;P2;durP2;ratioP2
64623;SDS011;51031;50.912;9.242;2022-08-19T00:00:04;34.17;;;30.48;;
64623;SDS011;51031;50.912;9.242;2022-08-19T00:00:22;33.53;;;28.38;;
64623;SDS011;51031;50.912;9.242;2022-08-19T00:00:39;28.23;;;24.15;;
64623;SDS011;51031;50.912;9.242;2022-08-19T00:00:55;27.33;;;23.73;;
64623;SDS011;51031;50.912;9.242;2022-08-19T00:01:10;27.70;;;24.07;;
64623;SDS011;51031;50.912;9.242;2022-08-19T00:01:28;26.30;;;22.92;;
64623;SDS011;51031;50.912;9.242;2022-08-19T00:01:47;26.30;;;22.58;;
64623;SDS011;51031;50.912;9.242;2022-08-19T00:02:03;25.70;;;21.95;;
64623;SDS011;51031;50.912;9.242;2022-08-19T00:02:19;24.27;;;21.20;;
64623;SDS011;51031;50.912;9.242;2022-08-19T00:02:35;25.20;;;21.85;;
64623;SDS011;51031;50.912;9.242;2022-08-19T00:02:52;25.73;;;22.35;;
64623;SDS011;51031;50.912;9.242;2022-08-19T00:03:08;28.30;;;24.93;;
64623;SDS011;51031;50.912;9.242;2022-08-19T00:03:24;30.40;;;26.55;;
64623;SDS011;51031;50.912;9.242;2022-08-19T00:03:39;29.88;;;25.35;;
64623;SDS011;51031;50.912;9.242;2022-08-19T00:03:55;27.98;;;23.83;;
64623;SDS011;51031;50.912;9.242;2022-08-19T00:04:12;26.23;;;22.45;;
64623;SDS011;51031;50.912;9.242;2022-08-19T00:04:31;25.88;;;22.85;;
64623;SDS011;51031;50.912;9.242;2022-08-19T00:04:49;26.63;;;23.02;;
64623;SDS011;51031;50.912;9.242;2022-08-19T00:05:08;29.93;;;25.87;;
64623;SDS011;51031;50.912;9.242;2022-08-19T00:05:25;31.63;;;27.05;;
64623;SDS011;51031;50.912;9.242;2022-08-19T00:05:42;33.30;;;27.80;;
64623;SDS011;51031;50.912;9.242;2022-08-19T00:05:58;34.00;;;28.85;;
64623;SDS011;51031;50.912;9.242;2022-08-19T00:06:14;34.58;;;29.48;;
64623;SDS011;51031;50.912;9.242;2022-08-19T00:06:30;33.78;;;28.73;;
64623;SDS011;51031;50.912;9.242;2022-08-19T00:06:46;31.63;;;27.27;;
64623;SDS011;51031;50.912;9.242;2022-08-19T00:07:04;29.65;;;25.55;;
64623;SDS011;51031;50.912;9.242;2022-08-19T00:07:21;28.27;;;24.33;;
64623;SDS011;51031;50.912;9.242;2022-08-19T00:07:36;27.52;;;23.73;;
64623;SDS011;51031;50.912;9.242;2022-08-19T00:07:52;27.02;;;22.85;;
64623;SDS011;51031;50.912;9.242;2022-08-19T00:08:08;28.17;;;23.70;;
64623;SDS011;51031;50.912;9.242;2022-08-19T00:08:24;29.17;;;24.20;;
64623;SDS011;51031;50.912;9.242;2022-08-19T00:08:41;28.25;;;23.52;;
64623;SDS011;51031;50.912;9.242;2022-08-19T00:08:57;28.73;;;24.02;;
64623;SDS011;51031;50.912;9.242;2022-08-19T00:09:16;27.77;;;23.50;;
64623;SDS011;51031;50.912;9.242;2022-08-19T00:09:34;27.27;;;23.33;;
64623;SDS011;51031;50.912;9.242;2022-08-19T00:09:49;28.08;;;23.83;;
64623;SDS011;51031;50.912;9.242;2022-08-19T00:10:06;29.88;;;25.58;;
64623;SDS011;51031;50.912;9.242;2022-08-19T00:10:23;28.40;;;24.80;;
64623;SDS011;51031;50.912;9.242;2022-08-19T00:10:39;27.23;;;24.23;;
64623;SDS011;51031;50.912;9.242;2022-08-19T00:10:55;31.13;;;27.05;;
64623;SDS011;51031;50.912;9.242;2022-08-19T00:11:11;30.90;;;26.92;;
64623;SDS011;51031;50.912;9.242;2022-08-19T00:11:28;30.08;;;26.50;;
64623;SDS011;51031;50.912;9.242;2022-08-19T00:11:44;31.02;;;25.95;;
64623;SDS011;51031;50.912;9.242;2022-08-19T00:12:01;32.03;;;26.23;;
64623;SDS011;51031;50.912;9.242;2022-08-19T00:12:18;29.23;;;25.27;;
64623;SDS011;51031;50.912;9.242;2022-08-19T00:12:33;30.65;;;26.90;;
64623;SDS011;51031;50.912;9.242;2022-08-19T00:12:51;33.47;;;29.73;;
64623;SDS011;51031;50.912;9.242;2022-08-19T00:13:08;31.98;;;27.50;;
64623;SDS011;51031;50.912;9.242;2022-08-19T00:13:24;29.73;;;25.55;;
64623;SDS011;51031;50.912;9.242;2022-08-19T00:13:40;29.33;;;25.57;;
64623;SDS011;51031;50.912;9.242;2022-08-19T00:13:56;29.25;;;25.67;;
64623;SDS011;51031;50.912;9.242;2022-08-19T00:14:13;30.60;;;26.30;;
64623;SDS011;51031;50.912;9.242;2022-08-19T00:14:31;28.27;;;23.92;;
64623;SDS011;51031;50.912;9.242;2022-08-19T00:14:47;30.00;;;25.23;;
64623;SDS011;51031;50.912;9.242;2022-08-19T00:15:03;30.80;;;25.73;;
64623;SDS011;51031;50.912;9.242;2022-08-19T00:15:21;27.63;;;23.55;;
64623;SDS011;51031;50.912;9.242;2022-08-19T00:15:37;26.13;;;23.15;;
64623;SDS011;51031;50.912;9.242;2022-08-19T00:15:54;28.02;;;24.05;;
64623;SDS011;51031;50.912;9.242;2022-08-19T00:16:10;27.30;;;23.23;;
64623;SDS011;51031;50.912;9.242;2022-08-19T00:16:26;28.05;;;24.08;;
64623;SDS011;51031;50.912;9.242;2022-08-19T00:16:46;28.13;;;23.85;;
64623;SDS011;51031;50.912;9.242;2022-08-19T00:17:06;26.10;;;23.27;;
64623;SDS011;51031;50.912;9.242;2022-08-19T00:17:22;28.13;;;23.58;;
64623;SDS011;51031;50.912;9.242;2022-08-19T00:17:38;28.27;;;23.25;;
64623;SDS011;51031;50.912;9.242;2022-08-19T00:17:55;27.90;;;22.77;;
64623;SDS011;51031;50.912;9.242;2022-08-19T00:18:11;27.40;;;22.80;;
64623;SDS011;51031;50.912;9.242;2022-08-19T00:18:27;27.65;;;23.42;;
64623;SDS011;51031;50.912;9.242;2022-08-19T00:18:43;29.38;;;23.27;;
64623;SDS011;51031;50.912;9.242;2022-08-19T00:18:58;29.45;;;23.65;;
64623;SDS011;51031;50.912;9.242;2022-08-19T00:19:14;28.03;;;24.00;;
64623;SDS011;51031;50.912;9.242;2022-08-19T00:19:32;27.88;;;23.85;;
64623;SDS011;51031;50.912;9.242;2022-08-19T00:19:49;27.85;;;23.48;;
64623;SDS011;51031;50.912;9.242;2022-08-19T00:20:05;27.67;;;23.42;;
64623;SDS011;51031;50.912;9.242;2022-08-19T00:20:22;27.23;;;23.55;;
64623;SDS011;51031;50.912;9.242;2022-08-19T00:20:37;29.20;;;23.92;;
64623;SDS011;51031;50.912;9.242;2022-08-19T00:20:55;29.90;;;24.55;;
64623;SDS011;51031;50.912;9.242;2022-08-19T00:21:11;29.67;;;24.80;;
64623;SDS011;51031;50.912;9.242;2022-08-19T00:21:27;30.20;;;25.10;;
64623;SDS011;51031;50.912;9.242;2022-08-19T00:21:42;28.88;;;24.38;;
64623;SDS011;51031;50.912;9.242;2022-08-19T00:21:59;27.63;;;23.90;;
64623;SDS011;51031;50.912;9.242;2022-08-19T00:22:14;28.13;;;24.10;;
64623;SDS011;51031;50.912;9.242;2022-08-19T00:22:33;28.90;;;24.80;;
64623;SDS011;51031;50.912;9.242;2022-08-19T00:22:48;30.35;;;25.63;;
64623;SDS011;51031;50.912;9.242;2022-08-19T00:23:04;31.35;;;25.85;;
64623;SDS011;51031;50.912;9.242;2022-08-19T00:23:20;30.70;;;25.40;;
64623;SDS011;51031;50.912;9.242;2022-08-19T00:23:36;29.83;;;24.48;;
64623;SDS011;51031;50.912;9.242;2022-08-19T00:23:53;30.02;;;24.17;;
64623;SDS011;51031;50.912;9.242;2022-08-19T00:24:10;29.25;;;24.40;;
64623;SDS011;51031;50.912;9.242;2022-08-19T00:24:27;30.50;;;24.77;;
64623;SDS011;51031;50.912;9.242;2022-08-19T00:24:43;31.65;;;24.85;;
64623;SDS011;51031;50.912;9.242;2022-08-19T00:25:00;30.10;;;25.08;;
64623;SDS011;51031;50.912;9.242;2022-08-19T00:25:17;31.27;;;25.98;;
64623;SDS011;51031;50.912;9.242;2022-08-19T00:25:33;32.00;;;26.10;;
64623;SDS011;51031;50.912;9.242;2022-08-19T00:25:49;30.38;;;25.55;;
64623;SDS011;51031;50.912;9.242;2022-08-19T00:26:06;30.17;;;25.05;;
64623;SDS011;51031;50.912;9.242;2022-08-19T00:26:22;29.08;;;24.40;;
64623;SDS011;51031;50.912;9.242;2022-08-19T00:26:39;27.90;;;24.27;;
64623;SDS011;51031;50.912;9.242;2022-08-19T00:26:59;28.97;;;24.83;;
64623;SDS011;51031;50.912;9.242;2022-08-19T00:27:16;29.70;;;25.13;;
64623;SDS011;51031;50.912;9.242;2022-08-19T00:27:32;29.25;;;25.00;;
64623;SDS011;51031;50.912;9.242;2022-08-19T00:27:48;29.02;;;25.02;;
64623;SDS011;51031;50.912;9.242;2022-08-19T00:28:04;29.25;;;25.73;;
64623;SDS011;51031;50.912;9.242;2022-08-19T00:28:21;27.70;;;24.67;;
64623;SDS011;51031;50.912;9.242;2022-08-19T00:28:39;28.20;;;24.83;;
64623;SDS011;51031;50.912;9.242;2022-08-19T00:28:56;30.45;;;26.33;;
64623;SDS011;51031;50.912;9.242;2022-08-19T00:29:12;31.80;;;27.35;;
64623;SDS011;51031;50.912;9.242;2022-08-19T00:29:30;30.52;;;26.50;;
64623;SDS011;51031;50.912;9.242;2022-08-19T00:29:47;31.85;;;27.48;;
64623;SDS011;51031;50.912;9.242;2022-08-19T00:30:03;33.10;;;27.77;;
64623;SDS011;51031;50.912;9.242;2022-08-19T00:30:21;34.60;;;29.15;;
64623;SDS011;51031;50.912;9.242;2022-08-19T00:30:37;36.80;;;31.00;;
64623;SDS011;51031;50.912;9.242;2022-08-19T00:30:52;44.05;;;37.38;;
64623;SDS011;51031;50.912;9.242;2022-08-19T00:31:10;62.45;;;52.97;;
64623;SDS011;51031;50.912;9.242;2022-08-19T00:31:26;68.28;;;56.95;;
64623;SDS011;51031;50.912;9.242;2022-08-19T00:31:43;65.82;;;53.80;;
64623;SDS011;51031;50.912;9.242;2022-08-19T00:32:00;58.88;;;48.17;;
64623;SDS011;51031;50.912;9.242;2022-08-19T00:32:16;50.10;;;40.88;;
64623;SDS011;51031;50.912;9.242;2022-08-19T00:32:33;41.70;;;35.17;;
64623;SDS011;51031;50.912;9.242;2022-08-19T00:32:49;54.28;;;45.83;;
64623;SDS011;51031;50.912;9.242;2022-08-19T00:33:06;48.47;;;41.00;;
64623;SDS011;51031;50.912;9.242;2022-08-19T00:33:23;30.08;;;25.98;;
64623;SDS011;51031;50.912;9.242;2022-08-19T00:33:41;39.55;;;33.22;;
64623;SDS011;51031;50.912;9.242;2022-08-19T00:33:58;41.13;;;34.75;;
64623;SDS011;51031;50.912;9.242;2022-08-19T00:34:14;35.50;;;30.65;;
64623;SDS011;51031;50.912;9.242;2022-08-19T00:34:31;54.22;;;45.55;;
64623;SDS011;51031;50.912;9.242;2022-08-19T00:34:46;61.00;;;51.83;;
64623;SDS011;51031;50.912;9.242;2022-08-19T00:35:03;54.97;;;47.20;;
64623;SDS011;51031;50.912;9.242;2022-08-19T00:35:19;48.60;;;41.28;;
64623;SDS011;51031;50.912;9.242;2022-08-19T00:35:35;37.60;;;31.43;;
64623;SDS011;51031;50.912;9.242;2022-08-19T00:35:54;33.03;;;27.40;;
64623;SDS011;51031;50.912;9.242;2022-08-19T00:36:11;42.13;;;36.15;;
64623;SDS011;51031;50.912;9.242;2022-08-19T00:36:27;36.45;;;31.67;;
64623;SDS011;51031;50.912;9.242;2022-08-19T00:36:43;36.47;;;30.75;;
64623;SDS011;51031;50.912;9.242;2022-08-19T00:37:00;50.72;;;42.58;;
64623;SDS011;51031;50.912;9.242;2022-08-19T00:37:15;59.58;;;50.45;;
64623;SDS011;51031;50.912;9.242;2022-08-19T00:37:33;63.20;;;53.13;;
64623;SDS011;51031;50.912;9.242;2022-08-19T00:37:50;49.78;;;41.58;;
64623;SDS011;51031;50.912;9.242;2022-08-19T00:38:06;38.22;;;32.20;;
64623;SDS011;51031;50.912;9.242;2022-08-19T00:38:21;53.22;;;44.65;;
64623;SDS011;51031;50.912;9.242;2022-08-19T00:38:40;72.63;;;58.90;;
64623;SDS011;51031;50.912;9.242;2022-08-19T00:38:57;79.90;;;65.93;;
64623;SDS011;51031;50.912;9.242;2022-08-19T00:39:15;74.63;;;62.30;;
64623;SDS011;51031;50.912;9.242;2022-08-19T00:39:31;55.80;;;46.97;;
64623;SDS011;51031;50.912;9.242;2022-08-19T00:39:47;61.42;;;51.42;;
64623;SDS011;51031;50.912;9.242;2022-08-19T00:40:04;79.15;;;65.30;;
64623;SDS011;51031;50.912;9.242;2022-08-19T00:40:21;82.07;;;67.53;;
64623;SDS011;51031;50.912;9.242;2022-08-19T00:40:38;70.88;;;59.67;;
64623;SDS011;51031;50.912;9.242;2022-08-19T00:40:55;63.45;;;53.83;;
64623;SDS011;51031;50.912;9.242;2022-08-19T00:41:12;71.85;;;59.28;;
64623;SDS011;51031;50.912;9.242;2022-08-19T00:41:29;89.32;;;73.22;;
64623;SDS011;51031;50.912;9.242;2022-08-19T00:41:45;90.47;;;75.60;;
64623;SDS011;51031;50.912;9.242;2022-08-19T00:42:04;82.63;;;69.75;;
64623;SDS011;51031;50.912;9.242;2022-08-19T00:42:21;82.20;;;69.80;;
64623;SDS011;51031;50.912;9.242;2022-08-19T00:42:37;73.35;;;62.50;;
64623;SDS011;51031;50.912;9.242;2022-08-19T00:42:53;68.78;;;58.40;;
64623;SDS011;51031;50.912;9.242;2022-08-19T00:43:10;76.20;;;62.77;;
64623;SDS011;51031;50.912;9.242;2022-08-19T00:43:28;76.68;;;62.78;;
64623;SDS011;51031;50.912;9.242;2022-08-19T00:43:55;73.38;;;61.05;;
64623;SDS011;51031;50.912;9.242;2022-08-19T00:44:13;65.38;;;55.35;;
64623;SDS011;51031;50.912;9.242;2022-08-19T00:44:31;42.22;;;35.97;;
64623;SDS011;51031;50.912;9.242;2022-08-19T00:44:47;53.22;;;45.33;;
64623;SDS011;51031;50.912;9.242;2022-08-19T00:45:08;52.70;;;44.20;;
64623;SDS011;51031;50.912;9.242;2022-08-19T00:45:27;53.08;;;45.10;;
64623;SDS011;51031;50.912;9.242;2022-08-19T00:45:45;54.05;;;45.97;;
64623;SDS011;51031;50.912;9.242;2022-08-19T00:46:02;54.90;;;46.08;;
64623;SDS011;51031;50.912;9.242;2022-08-19T00:46:19;53.85;;;45.75;;
64623;SDS011;51031;50.912;9.242;2022-08-19T00:46:37;50.28;;;42.47;;
64623;SDS011;51031;50.912;9.242;2022-08-19T00:46:56;50.75;;;43.13;;
64623;SDS011;51031;50.912;9.242;2022-08-19T00:47:15;50.55;;;42.53;;
64623;SDS011;51031;50.912;9.242;2022-08-19T00:47:31;42.47;;;36.63;;
64623;SDS011;51031;50.912;9.242;2022-08-19T00:47:48;56.72;;;47.25;;
64623;SDS011;51031;50.912;9.242;2022-08-19T00:48:04;63.38;;;52.97;;
64623;SDS011;51031;50.912;9.242;2022-08-19T00:48:20;51.55;;;43.70;;
64623;SDS011;51031;50.912;9.242;2022-08-19T00:48:36;49.17;;;41.53;;
64623;SDS011;51031;50.912;9.242;2022-08-19T00:48:52;53.17;;;45.08;;
64623;SDS011;51031;50.912;9.242;2022-08-19T00:49:14;37.90;;;31.90;;
64623;SDS011;51031;50.912;9.242;2022-08-19T00:49:35;36.00;;;30.67;;
64623;SDS011;51031;50.912;9.242;2022-08-19T00:49:54;53.88;;;46.15;;
64623;SDS011;51031;50.912;9.242;2022-08-19T00:50:12;46.58;;;40.42;;
64623;SDS011;51031;50.912;9.242;2022-08-19T00:50:32;29.75;;;25.98;;
64623;SDS011;51031;50.912;9.242;2022-08-19T00:50:49;37.65;;;32.10;;
64623;SDS011;51031;50.912;9.242;2022-08-19T00:51:08;50.03;;;42.05;;
64623;SDS011;51031;50.912;9.242;2022-08-19T00:51:24;36.17;;;30.58;;
64623;SDS011;51031;50.912;9.242;2022-08-19T00:51:43;53.95;;;45.08;;
64623;SDS011;51031;50.912;9.242;2022-08-19T00:52:04;54.03;;;45.60;;
64623;SDS011;51031;50.912;9.242;2022-08-19T00:52:24;40.60;;;34.83;;
64623;SDS011;51031;50.912;9.242;2022-08-19T00:52:44;41.00;;;35.00;;
64623;SDS011;51031;50.912;9.242;2022-08-19T00:53:03;46.78;;;40.42;;
64623;SDS011;51031;50.912;9.242;2022-08-19T00:53:20;51.42;;;44.88;;
64623;SDS011;51031;50.912;9.242;2022-08-19T00:53:41;46.90;;;39.30;;
64623;SDS011;51031;50.912;9.242;2022-08-19T00:53:58;51.38;;;43.25;;
64623;SDS011;51031;50.912;9.242;2022-08-19T00:54:18;53.38;;;44.78;;
64623;SDS011;51031;50.912;9.242;2022-08-19T00:54:35;43.72;;;36.70;;
64623;SDS011;51031;50.912;9.242;2022-08-19T00:54:52;35.88;;;30.42;;
64623;SDS011;51031;50.912;9.242;2022-08-19T00:55:09;32.88;;;28.83;;
64623;SDS011;51031;50.912;9.242;2022-08-19T00:55:27;40.35;;;35.17;;
64623;SDS011;51031;50.912;9.242;2022-08-19T00:55:44;50.97;;;43.53;;
64623;SDS011;51031;50.912;9.242;2022-08-19T00:56:02;55.42;;;46.80;;
64623;SDS011;51031;50.912;9.242;2022-08-19T00:56:21;46.90;;;40.08;;
64623;SDS011;51031;50.912;9.242;2022-08-19T00:56:41;29.63;;;26.02;;
64623;SDS011;51031;50.912;9.242;2022-08-19T00:56:59;33.28;;;29.33;;
64623;SDS011;51031;50.912;9.242;2022-08-19T00:57:22;50.00;;;42.70;;
64623;SDS011;51031;50.912;9.242;2022-08-19T00:57:42;53.58;;;45.65;;
64623;SDS011;51031;50.912;9.242;2022-08-19T00:58:01;40.97;;;35.45;;
64623;SDS011;51031;50.912;9.242;2022-08-19T00:58:21;45.35;;;38.65;;
64623;SDS011;51031;50.912;9.242;2022-08-19T00:58:39;46.83;;;39.67;;
64623;SDS011;51031;50.912;9.242;2022-08-19T00:58:56;49.13;;;41.80;;
64623;SDS011;51031;50.912;9.242;2022-08-19T00:59:16;46.42;;;39.83;;
64623;SDS011;51031;50.912;9.242;2022-08-19T00:59:34;43.40;;;37.60;;
64623;SDS011;51031;50.912;9.242;2022-08-19T00:59:51;50.97;;;43.55;;
64623;SDS011;51031;50.912;9.242;2022-08-19T01:00:11;51.42;;;44.13;;
64623;SDS011;51031;50.912;9.242;2022-08-19T01:00:29;53.70;;;45.42;;
64623;SDS011;51031;50.912;9.242;2022-08-19T01:00:46;50.28;;;42.03;;
64623;SDS011;51031;50.912;9.242;2022-08-19T01:01:04;41.25;;;34.75;;
64623;SDS011;51031;50.912;9.242;2022-08-19T01:01:20;34.90;;;30.38;;
64623;SDS011;51031;50.912;9.242;2022-08-19T01:01:36;39.35;;;33.83;;
64623;SDS011;51031;50.912;9.242;2022-08-19T01:01:53;40.47;;;34.17;;
64623;SDS011;51031;50.912;9.242;2022-08-19T01:02:09;38.70;;;32.87;;
64623;SDS011;51031;50.912;9.242;2022-08-19T01:02:27;38.55;;;32.75;;
64623;SDS011;51031;50.912;9.242;2022-08-19T01:02:44;49.00;;;41.58;;
64623;SDS011;51031;50.912;9.242;2022-08-19T01:03:00;51.97;;;43.85;;
64623;SDS011;51031;50.912;9.242;2022-08-19T01:03:18;45.65;;;39.22;;
64623;SDS011;51031;50.912;9.242;2022-08-19T01:03:35;40.97;;;36.38;;
64623;SDS011;51031;50.912;9.242;2022-08-19T01:03:50;45.90;;;40.25;;
64623;SDS011;51031;50.912;9.242;2022-08-19T01:04:06;48.85;;;41.75;;
64623;SDS011;51031;50.912;9.242;2022-08-19T01:04:22;50.35;;;42.25;;
64623;SDS011;51031;50.912;9.242;2022-08-19T01:04:38;50.08;;;43.25;;
64623;SDS011;51031;50.912;9.242;2022-08-19T01:04:54;47.70;;;41.57;;
64623;SDS011;51031;50.912;9.242;2022-08-19T01:05:12;39.97;;;34.95;;
64623;SDS011;51031;50.912;9.242;2022-08-19T01:05:31;32.22;;;27.92;;
64623;SDS011;51031;50.912;9.242;2022-08-19T01:05:47;42.90;;;36.50;;
64623;SDS011;51031;50.912;9.242;2022-08-19T01:06:05;36.45;;;30.45;;
64623;SDS011;51031;50.912;9.242;2022-08-19T01:06:21;35.08;;;29.83;;
64623;SDS011;51031;50.912;9.242;2022-08-19T01:06:38;44.08;;;38.00;;
64623;SDS011;51031;50.912;9.242;2022-08-19T01:06:58;42.03;;;36.17;;
64623;SDS011;51031;50.912;9.242;2022-08-19T01:07:14;32.80;;;29.00;;
64623;SDS011;51031;50.912;9.242;2022-08-19T01:07:30;28.27;;;25.07;;
64623;SDS011;51031;50.912;9.242;2022-08-19T01:07:46;29.35;;;25.15;;
64623;SDS011;51031;50.912;9.242;2022-08-19T01:08:04;26.73;;;22.83;;
64623;SDS011;51031;50.912;9.242;2022-08-19T01:08:22;27.15;;;22.38;;
64623;SDS011;51031;50.912;9.242;2022-08-19T01:08:38;32.30;;;26.77;;
64623;SDS011;51031;50.912;9.242;2022-08-19T01:08:56;31.83;;;27.48;;
64623;SDS011;51031;50.912;9.242;2022-08-19T01:09:12;30.63;;;25.63;;
64623;SDS011;51031;50.912;9.242;2022-08-19T01:09:28;32.58;;;27.52;;
64623;SDS011;51031;50.912;9.242;2022-08-19T01:09:45;28.13;;;23.73;;
64623;SDS011;51031;50.912;9.242;2022-08-19T01:10:03;26.23;;;21.98;;
64623;SDS011;51031;50.912;9.242;2022-08-19T01:10:22;25.92;;;22.48;;
64623;SDS011;51031;50.912;9.242;2022-08-19T01:10:40;27.38;;;24.13;;
64623;SDS011;51031;50.912;9.242;2022-08-19T01:10:59;29.85;;;26.23;;
64623;SDS011;51031;50.912;9.242;2022-08-19T01:11:18;30.65;;;26.27;;
64623;SDS011;51031;50.912;9.242;2022-08-19T01:11:39;27.17;;;23.80;;
64623;SDS011;51031;50.912;9.242;2022-08-19T01:11:59;27.83;;;23.77;;
64623;SDS011;51031;50.912;9.242;2022-08-19T01:12:15;26.90;;;22.17;;
64623;SDS011;51031;50.912;9.242;2022-08-19T01:12:32;26.15;;;22.40;;
64623;SDS011;51031;50.912;9.242;2022-08-19T01:12:50;26.42;;;22.90;;
64623;SDS011;51031;50.912;9.242;2022-08-19T01:13:08;26.98;;;23.67;;
64623;SDS011;51031;50.912;9.242;2022-08-19T01:13:25;25.65;;;22.73;;
64623;SDS011;51031;50.912;9.242;2022-08-19T01:13:44;30.70;;;26.23;;
64623;SDS011;51031;50.912;9.242;2022-08-19T01:14:01;31.83;;;27.73;;
64623;SDS011;51031;50.912;9.242;2022-08-19T01:14:18;28.48;;;25.13;;
64623;SDS011;51031;50.912;9.242;2022-08-19T01:14:34;28.05;;;23.30;;
64623;SDS011;51031;50.912;9.242;2022-08-19T01:14:52;28.92;;;22.98;;
64623;SDS011;51031;50.912;9.242;2022-08-19T01:15:11;27.65;;;23.33;;
64623;SDS011;51031;50.912;9.242;2022-08-19T01:15:30;26.60;;;23.70;;
64623;SDS011;51031;50.912;9.242;2022-08-19T01:15:48;27.40;;;24.10;;
64623;SDS011;51031;50.912;9.242;2022-08-19T01:16:08;29.23;;;24.42;;
64623;SDS011;51031;50.912;9.242;2022-08-19T01:16:27;29.27;;;24.08;;
64623;SDS011;51031;50.912;9.242;2022-08-19T01:16:44;27.13;;;23.85;;
64623;SDS011;51031;50.912;9.242;2022-08-19T01:17:02;27.92;;;24.42;;
64623;SDS011;51031;50.912;9.242;2022-08-19T01:17:18;27.70;;;24.45;;
64623;SDS011;51031;50.912;9.242;2022-08-19T01:17:38;29.02;;;25.45;;
64623;SDS011;51031;50.912;9.242;2022-08-19T01:17:55;28.42;;;24.98;;
64623;SDS011;51031;50.912;9.242;2022-08-19T01:18:15;28.95;;;25.75;;
64623;SDS011;51031;50.912;9.242;2022-08-19T01:18:35;34.03;;;28.85;;
64623;SDS011;51031;50.912;9.242;2022-08-19T01:18:58;30.63;;;25.88;;
64623;SDS011;51031;50.912;9.242;2022-08-19T01:19:18;30.45;;;25.38;;
64623;SDS011;51031;50.912;9.242;2022-08-19T01:19:40;28.73;;;24.75;;
64623;SDS011;51031;50.912;9.242;2022-08-19T01:19:57;27.65;;;24.15;;
64623;SDS011;51031;50.912;9.242;2022-08-19T01:20:14;27.47;;;23.73;;
64623;SDS011;51031;50.912;9.242;2022-08-19T01:20:33;29.33;;;25.50;;
64623;SDS011;51031;50.912;9.242;2022-08-19T01:20:49;28.88;;;24.90;;
64623;SDS011;51031;50.912;9.242;2022-08-19T01:21:08;28.17;;;23.48;;
64623;SDS011;51031;50.912;9.242;2022-08-19T01:21:29;27.67;;;23.58;;
64623;SDS011;51031;50.912;9.242;2022-08-19T01:21:51;26.80;;;22.83;;
64623;SDS011;51031;50.912;9.242;2022-08-19T01:22:14;29.30;;;23.70;;
64623;SDS011;51031;50.912;9.242;2022-08-19T01:22:35;29.17;;;23.73;;
64623;SDS011;51031;50.912;9.242;2022-08-19T01:22:55;28.08;;;23.55;;
64623;SDS011;51031;50.912;9.242;2022-08-19T01:23:12;29.38;;;25.10;;
64623;SDS011;51031;50.912;9.242;2022-08-19T01:23:29;29.85;;;25.35;;
64623;SDS011;51031;50.912;9.242;2022-08-19T01:23:58;28.23;;;24.25;;
64623;SDS011;51031;50.912;9.242;2022-08-19T01:24:14;28.85;;;25.08;;
64623;SDS011;51031;50.912;9.242;2022-08-19T01:24:31;32.10;;;27.52;;
64623;SDS011;51031;50.912;9.242;2022-08-19T01:24:47;35.03;;;30.05;;
64623;SDS011;51031;50.912;9.242;2022-08-19T01:25:03;35.22;;;30.25;;
64623;SDS011;51031;50.912;9.242;2022-08-19T01:25:21;36.35;;;31.30;;
64623;SDS011;51031;50.912;9.242;2022-08-19T01:25:41;35.30;;;30.17;;
64623;SDS011;51031;50.912;9.242;2022-08-19T01:25:59;32.63;;;28.50;;
64623;SDS011;51031;50.912;9.242;2022-08-19T01:26:17;33.50;;;28.60;;
64623;SDS011;51031;50.912;9.242;2022-08-19T01:26:37;34.97;;;29.70;;
64623;SDS011;51031;50.912;9.242;2022-08-19T01:26:56;34.90;;;29.58;;
64623;SDS011;51031;50.912;9.242;2022-08-19T01:27:12;34.78;;;28.85;;
64623;SDS011;51031;50.912;9.242;2022-08-19T01:27:36;31.90;;;26.33;;
64623;SDS011;51031;50.912;9.242;2022-08-19T01:27:54;31.40;;;27.00;;
64623;SDS011;51031;50.912;9.242;2022-08-19T01:28:14;35.63;;;29.52;;
64623;SDS011;51031;50.912;9.242;2022-08-19T01:28:32;35.85;;;30.63;;
64623;SDS011;51031;50.912;9.242;2022-08-19T01:28:49;38.30;;;31.30;;
64623;SDS011;51031;50.912;9.242;2022-08-19T01:29:07;37.47;;;31.13;;
64623;SDS011;51031;50.912;9.242;2022-08-19T01:29:26;40.20;;;33.53;;
64623;SDS011;51031;50.912;9.242;2022-08-19T01:29:42;40.88;;;33.97;;
64623;SDS011;51031;50.912;9.242;2022-08-19T01:30:01;53.17;;;43.22;;
64623;SDS011;51031;50.912;9.242;2022-08-19T01:30:17;86.28;;;68.32;;
64623;SDS011;51031;50.912;9.242;2022-08-19T01:30:37;101.43;;;78.82;;
64623;SDS011;51031;50.912;9.242;2022-08-19T01:30:53;108.80;;;83.97;;
64623;SDS011;51031;50.912;9.242;2022-08-19T01:31:12;128.32;;;97.00;;
64623;SDS011;51031;50.912;9.242;2022-08-19T01:31:31;141.00;;;107.63;;
64623;SDS011;51031;50.912;9.242;2022-08-19T01:31:46;134.00;;;102.90;;
64623;SDS011;51031;50.912;9.242;2022-08-19T01:32:07;164.80;;;122.18;;
64623;SDS011;51031;50.912;9.242;2022-08-19T01:32:27;195.85;;;145.55;;
64623;SDS011;51031;50.912;9.242;2022-08-19T01:32:42;185.73;;;139.30;;
64623;SDS011;51031;50.912;9.242;2022-08-19T01:32:59;205.52;;;152.20;;
64623;SDS011;51031;50.912;9.242;2022-08-19T01:33:16;222.45;;;164.00;;
64623;SDS011;51031;50.912;9.242;2022-08-19T01:33:32;242.80;;;181.43;;
64623;SDS011;51031;50.912;9.242;2022-08-19T01:33:48;248.10;;;186.38;;
64623;SDS011;51031;50.912;9.242;2022-08-19T01:34:04;252.93;;;191.63;;
64623;SDS011;51031;50.912;9.242;2022-08-19T01:34:21;283.38;;;219.57;;
64623;SDS011;51031;50.912;9.242;2022-08-19T01:34:38;297.40;;;229.73;;
64623;SDS011;51031;50.912;9.242;2022-08-19T01:34:54;300.05;;;235.25;;
64623;SDS011;51031;50.912;9.242;2022-08-19T01:35:10;322.48;;;255.23;;
64623;SDS011;51031;50.912;9.242;2022-08-19T01:35:28;329.23;;;257.40;;
64623;SDS011;51031;50.912;9.242;2022-08-19T01:35:47;307.77;;;237.90;;
64623;SDS011;51031;50.912;9.242;2022-08-19T01:36:07;340.95;;;264.15;;
64623;SDS011;51031;50.912;9.242;2022-08-19T01:36:29;300.58;;;234.73;;
64623;SDS011;51031;50.912;9.242;2022-08-19T01:36:47;268.98;;;210.60;;
64623;SDS011;51031;50.912;9.242;2022-08-19T01:37:05;314.13;;;246.93;;
64623;SDS011;51031;50.912;9.242;2022-08-19T01:37:26;417.05;;;329.17;;
64623;SDS011;51031;50.912;9.242;2022-08-19T01:37:44;448.73;;;351.45;;
64623;SDS011;51031;50.912;9.242;2022-08-19T01:38:02;439.70;;;344.65;;
64623;SDS011;51031;50.912;9.242;2022-08-19T01:38:24;354.17;;;277.25;;
64623;SDS011;51031;50.912;9.242;2022-08-19T01:38:43;267.90;;;209.63;;
64623;SDS011;51031;50.912;9.242;2022-08-19T01:39:01;322.25;;;253.73;;
64623;SDS011;51031;50.912;9.242;2022-08-19T01:39:19;294.67;;;233.15;;
64623;SDS011;51031;50.912;9.242;2022-08-19T01:39:38;307.02;;;239.43;;
64623;SDS011;51031;50.912;9.242;2022-08-19T01:39:55;308.13;;;242.63;;
64623;SDS011;51031;50.912;9.242;2022-08-19T01:40:11;189.13;;;148.23;;
64623;SDS011;51031;50.912;9.242;2022-08-19T01:40:29;254.88;;;196.50;;
64623;SDS011;51031;50.912;9.242;2022-08-19T01:40:47;311.38;;;243.32;;
64623;SDS011;51031;50.912;9.242;2022-08-19T01:41:02;264.10;;;206.47;;
64623;SDS011;51031;50.912;9.242;2022-08-19T01:41:19;285.00;;;221.85;;
64623;SDS011;51031;50.912;9.242;2022-08-19T01:41:37;341.83;;;268.33;;
64623;SDS011;51031;50.912;9.242;2022-08-19T01:41:56;343.63;;;269.80;;